Time;durP1;ratioP1;P1;durP2;ratioP2;P2;SDS_P1;SDS_P2;PMS_P1;PMS_P2;Temp;Humidity;BMP_temperature;BMP_pressure;BME280_temperature;BME280_humidity;BME280_pressure;Samples;Min_cycle;Max_cycle;Signal;HPM_P1;HPM_P2
2023/09/13 00:01:27;;;;;;;;;;;21.90;95.30;;;;;;5105427;28;20003;-70
2023/09/13 00:03:52;;;;;;;;;;;21.90;95.40;;;;;;5104266;28;20545;-70
2023/09/13 00:06:18;;;;;;;;;;;21.80;95.40;;;;;;5090669;28;19920;-70
2023/09/13 00:08:43;;;;;;;;;;;21.80;95.40;;;;;;5103314;28;19911;-70
2023/09/13 00:11:09;;;;;;;;;;;21.80;95.40;;;;;;5108221;28;19908;-70
2023/09/13 00:13:34;;;;;;;;;;;21.80;95.50;;;;;;5099525;28;20573;-70
2023/09/13 00:16:00;;;;;;;;;;;21.80;95.50;;;;;;5093247;27;20003;-70
2023/09/13 00:18:25;;;;;;;;;;;21.80;95.50;;;;;;5103934;28;19943;-70
2023/09/13 00:20:54;;;;;;;;;;;21.80;95.50;;;;;;5082591;28;19962;-70
2023/09/13 00:23:20;;;;;;;;;;;21.80;95.50;;;;;;5089599;28;20384;-70
2023/09/13 00:25:46;;;;;;;;;;;21.70;95.50;;;;;;5099823;28;19961;-70
2023/09/13 00:28:11;;;;;;;;;;;21.70;95.50;;;;;;5099886;27;19919;-70
2023/09/13 00:30:37;;;;;;;;;;;21.70;95.50;;;;;;5108737;28;19943;-70
2023/09/13 00:33:03;;;;;;;;;;;21.70;95.50;;;;;;5107974;28;19912;-70
2023/09/13 00:35:28;;;;;;;;;;;21.70;95.50;;;;;;5108453;28;19915;-70
2023/09/13 00:37:54;;;;;;;;;;;21.70;95.50;;;;;;5107360;28;19953;-70
2023/09/13 00:40:19;;;;;;;;;;;21.60;95.50;;;;;;5099378;28;20612;-70
2023/09/13 00:42:45;;;;;;;;;;;21.60;95.60;;;;;;5108286;28;20424;-70
2023/09/13 00:45:11;;;;;;;;;;;21.60;95.60;;;;;;5107612;28;19908;-70
2023/09/13 00:47:38;;;;;;;;;;;21.60;95.60;;;;;;5108529;28;20094;-70
2023/09/13 00:50:04;;;;;;;;;;;21.60;95.50;;;;;;5101085;28;20419;-70
2023/09/13 00:52:29;;;;;;;;;;;21.60;95.50;;;;;;5108416;28;20011;-70
2023/09/13 00:54:55;;;;;;;;;;;21.60;95.60;;;;;;5097815;28;20387;-70
2023/09/13 00:57:21;;;;;;;;;;;21.60;95.60;;;;;;5104304;28;20422;-70
2023/09/13 00:59:47;;;;;;;;;;;21.50;95.90;;;;;;5101659;28;19907;-70
2023/09/13 01:02:12;;;;;;;;;;;21.50;95.60;;;;;;5108299;28;19918;-70
2023/09/13 01:04:38;;;;;;;;;;;21.50;95.70;;;;;;5108126;28;19929;-70
2023/09/13 01:07:06;;;;;;;;;;;21.50;95.60;;;;;;5106937;28;19916;-70
2023/09/13 01:09:32;;;;;;;;;;;21.50;95.60;;;;;;5108208;28;19908;-70
2023/09/13 01:11:58;;;;;;;;;;;21.50;95.60;;;;;;5100379;28;19923;-70
2023/09/13 01:14:23;;;;;;;;;;;21.50;95.70;;;;;;5106867;28;19988;-70
2023/09/13 01:16:54;;;;;;;;;;;21.50;95.70;;;;;;5107991;28;19961;-70
2023/09/13 01:19:41;;;;;;;;;;;21.40;95.70;;;;;;5090463;28;20395;-70
2023/09/13 01:22:26;;;;;;;;;;;21.40;95.70;;;;;;5104192;28;19927;-70
2023/09/13 01:24:51;;;;;;;;;;;21.40;95.70;;;;;;5094116;28;19915;-70
2023/09/13 01:27:25;;;;;;;;;;;21.40;95.70;;;;;;5098499;28;19920;-70
2023/09/13 01:29:51;;;;;;;;;;;21.40;95.70;;;;;;5101219;28;19915;-70
2023/09/13 01:32:17;;;;;;;;;;;21.40;95.70;;;;;;5091815;28;19912;-70
2023/09/13 01:34:42;;;;;;;;;;;21.40;95.80;;;;;;5101117;28;19912;-70
2023/09/13 01:37:08;;;;;;;;;;;21.40;95.80;;;;;;5099360;28;19912;-70
2023/09/13 01:39:33;;;;;;;;;;;21.40;95.70;;;;;;5087825;28;20516;-70
2023/09/13 01:42:03;;;;;;;;;;;21.40;95.70;;;;;;5103532;28;20633;-70
2023/09/13 01:44:29;;;;;;;;;;;21.30;95.80;;;;;;5107405;28;20015;-70
2023/09/13 01:46:55;;;;;;;;;;;21.40;95.80;;;;;;5107582;28;19923;-70
2023/09/13 01:49:21;;;;;;;;;;;21.30;95.70;;;;;;5106739;28;19911;-69
2023/09/13 01:51:47;;;;;;;;;;;21.30;95.80;;;;;;5101939;28;19921;-70
2023/09/13 01:54:12;;;;;;;;;;;21.30;95.80;;;;;;5094985;28;20383;-70
2023/09/13 01:56:38;;;;;;;;;;;21.30;95.80;;;;;;5106175;28;19947;-70
2023/09/13 01:59:04;;;;;;;;;;;21.30;95.80;;;;;;5091118;28;20006;-70
2023/09/13 02:01:29;;;;;;;;;;;21.30;95.90;;;;;;5090782;28;19908;-70
2023/09/13 02:03:55;;;;;;;;;;;21.30;95.90;;;;;;5105783;28;19919;-70
2023/09/13 02:06:20;;;;;;;;;;;21.30;95.80;;;;;;5106605;28;20390;-70
2023/09/13 02:08:46;;;;;;;;;;;21.30;95.90;;;;;;5106654;28;20605;-70
2023/09/13 02:11:12;;;;;;;;;;;21.30;95.90;;;;;;5097779;28;19918;-70
2023/09/13 02:13:37;;;;;;;;;;;21.30;95.90;;;;;;5100006;28;19957;-69
2023/09/13 02:16:03;;;;;;;;;;;21.20;95.90;;;;;;5099083;28;19946;-70
2023/09/13 02:18:28;;;;;;;;;;;21.20;95.80;;;;;;5086526;28;19912;-69
2023/09/13 02:20:54;;;;;;;;;;;21.20;95.80;;;;;;5086438;28;19915;-70
2023/09/13 02:23:20;;;;;;;;;;;21.30;95.90;;;;;;5094598;28;19921;-70
2023/09/13 02:25:46;;;;;;;;;;;21.20;95.90;;;;;;5100433;28;20356;-69
2023/09/13 02:28:12;;;;;;;;;;;21.20;95.90;;;;;;5098272;27;19922;-70
2023/09/13 02:30:38;;;;;;;;;;;21.20;96.00;;;;;;5098733;28;19916;-69
2023/09/13 02:33:04;;;;;;;;;;;21.20;95.90;;;;;;5106806;28;20284;-70
2023/09/13 02:35:30;;;;;;;;;;;21.20;96.00;;;;;;5109956;28;19907;-70
2023/09/13 02:37:55;;;;;;;;;;;21.20;96.00;;;;;;5109270;28;19912;-70
2023/09/13 02:40:21;;;;;;;;;;;21.20;96.00;;;;;;5108003;28;20339;-70
2023/09/13 02:42:47;;;;;;;;;;;21.20;96.00;;;;;;5104622;28;20008;-70
2023/09/13 02:45:13;;;;;;;;;;;21.10;95.90;;;;;;5110122;28;20002;-70
2023/09/13 02:47:38;;;;;;;;;;;21.20;95.90;;;;;;5110839;28;19999;-70
2023/09/13 02:50:05;;;;;;;;;;;21.20;96.00;;;;;;5103709;28;19912;-70
2023/09/13 02:52:31;;;;;;;;;;;21.10;96.00;;;;;;5102171;28;20016;-70
2023/09/13 02:54:57;;;;;;;;;;;21.10;96.00;;;;;;5109938;28;19918;-70
2023/09/13 02:57:23;;;;;;;;;;;21.10;96.00;;;;;;5100240;28;19927;-70
2023/09/13 02:59:49;;;;;;;;;;;21.10;96.00;;;;;;5108975;28;20446;-70
2023/09/13 03:02:14;;;;;;;;;;;21.10;96.00;;;;;;5091754;28;19908;-70
2023/09/13 03:04:40;;;;;;;;;;;21.10;96.00;;;;;;5098312;28;19916;-70
2023/09/13 03:07:05;;;;;;;;;;;21.10;96.00;;;;;;5097801;28;19920;-70
2023/09/13 03:09:31;;;;;;;;;;;21.00;96.00;;;;;;5093492;28;19908;-70
2023/09/13 03:11:56;;;;;;;;;;;21.10;96.20;;;;;;5101066;28;19931;-69
2023/09/13 03:14:22;;;;;;;;;;;21.10;96.10;;;;;;5100594;28;20003;-70
2023/09/13 03:16:47;;;;;;;;;;;21.00;96.00;;;;;;5095292;28;19916;-70
2023/09/13 03:19:13;;;;;;;;;;;21.00;96.00;;;;;;5097244;28;19919;-70
2023/09/13 03:21:38;;;;;;;;;;;21.00;96.00;;;;;;5089141;28;19912;-69
2023/09/13 03:24:05;;;;;;;;;;;21.00;96.00;;;;;;5097682;28;19912;-70
2023/09/13 03:26:31;;;;;;;;;;;21.00;96.10;;;;;;5109468;28;19919;-70
2023/09/13 03:28:57;;;;;;;;;;;21.00;96.10;;;;;;5109960;28;19918;-70
2023/09/13 03:31:23;;;;;;;;;;;21.00;96.00;;;;;;5098754;28;19912;-70
2023/09/13 03:33:49;;;;;;;;;;;21.00;96.00;;;;;;5103733;28;20348;-70
2023/09/13 03:36:15;;;;;;;;;;;21.00;96.10;;;;;;5109549;28;19912;-70
2023/09/13 03:38:42;;;;;;;;;;;20.90;96.10;;;;;;5103392;28;19961;-70
2023/09/13 03:41:08;;;;;;;;;;;20.90;96.10;;;;;;5097786;28;20003;-70
2023/09/13 03:43:33;;;;;;;;;;;20.90;96.10;;;;;;5100900;28;19912;-70
2023/09/13 03:45:59;;;;;;;;;;;21.00;96.20;;;;;;5100893;28;19946;-69
2023/09/13 03:48:24;;;;;;;;;;;20.90;96.20;;;;;;5100628;28;19918;-70
2023/09/13 03:50:50;;;;;;;;;;;20.90;96.20;;;;;;5094808;28;20359;-70
2023/09/13 03:53:16;;;;;;;;;;;20.90;96.20;;;;;;5092992;28;19912;-70
2023/09/13 03:55:42;;;;;;;;;;;20.90;96.20;;;;;;5109441;28;20456;-69
2023/09/13 03:58:08;;;;;;;;;;;20.90;96.10;;;;;;5109255;28;19915;-70
2023/09/13 04:00:36;;;;;;;;;;;20.90;96.20;;;;;;5097072;28;20401;-70
2023/09/13 04:03:03;;;;;;;;;;;20.90;96.20;;;;;;5105109;28;19950;-70
2023/09/13 04:05:29;;;;;;;;;;;20.90;96.20;;;;;;5105574;28;19916;-70
2023/09/13 04:07:55;;;;;;;;;;;20.90;96.20;;;;;;5096273;28;19920;-70
2023/09/13 04:10:20;;;;;;;;;;;20.80;96.20;;;;;;5108571;28;19919;-70
2023/09/13 04:12:46;;;;;;;;;;;20.80;96.20;;;;;;5108190;28;19930;-70
2023/09/13 04:15:11;;;;;;;;;;;20.80;96.20;;;;;;5105348;28;19915;-70
2023/09/13 04:17:37;;;;;;;;;;;20.80;96.20;;;;;;5109220;28;19915;-70
2023/09/13 04:20:02;;;;;;;;;;;20.80;96.30;;;;;;5102309;28;19919;-70
2023/09/13 04:22:30;;;;;;;;;;;20.80;96.30;;;;;;5108191;28;19916;-70
2023/09/13 04:24:56;;;;;;;;;;;20.80;96.20;;;;;;5093258;27;19912;-70
2023/09/13 04:27:22;;;;;;;;;;;20.80;96.30;;;;;;5088340;28;19923;-70
2023/09/13 04:29:47;;;;;;;;;;;20.80;96.20;;;;;;5102795;28;20340;-70
2023/09/13 04:32:13;;;;;;;;;;;20.80;96.20;;;;;;5099984;28;19958;-70
2023/09/13 04:34:38;;;;;;;;;;;20.80;96.30;;;;;;5103906;28;19977;-69
2023/09/13 04:37:07;;;;;;;;;;;20.70;96.30;;;;;;5097439;28;19976;-70
2023/09/13 04:39:32;;;;;;;;;;;20.70;96.30;;;;;;5088363;28;19916;-70
2023/09/13 04:41:58;;;;;;;;;;;20.70;96.30;;;;;;5096480;28;19923;-70
2023/09/13 04:44:24;;;;;;;;;;;20.80;96.30;;;;;;5089918;28;19908;-70
2023/09/13 04:46:50;;;;;;;;;;;20.70;96.30;;;;;;5108081;28;20351;-70
2023/09/13 04:49:16;;;;;;;;;;;20.70;96.30;;;;;;5099423;28;19934;-68
2023/09/13 04:51:41;;;;;;;;;;;20.70;96.30;;;;;;5100915;28;19911;-70
2023/09/13 04:54:07;;;;;;;;;;;20.70;96.30;;;;;;5107947;28;20311;-70
2023/09/13 04:56:32;;;;;;;;;;;20.70;96.30;;;;;;5091081;28;19930;-69
2023/09/13 04:58:58;;;;;;;;;;;20.70;96.40;;;;;;5108159;28;20003;-70
2023/09/13 05:01:23;;;;;;;;;;;20.70;96.40;;;;;;5105531;28;20521;-70
2023/09/13 05:03:49;;;;;;;;;;;20.70;96.40;;;;;;5087601;28;19908;-70
2023/09/13 05:06:15;;;;;;;;;;;20.70;96.40;;;;;;5104417;28;19931;-70
2023/09/13 05:08:41;;;;;;;;;;;20.70;96.40;;;;;;5106797;28;19937;-70
2023/09/13 05:11:06;;;;;;;;;;;20.60;96.40;;;;;;5107752;28;20348;-70
2023/09/13 05:13:32;;;;;;;;;;;20.70;96.40;;;;;;5107270;28;20504;-70
2023/09/13 05:15:58;;;;;;;;;;;20.60;96.40;;;;;;5106560;28;20586;-70
2023/09/13 05:18:23;;;;;;;;;;;20.60;96.40;;;;;;5107364;28;19912;-70
2023/09/13 05:20:49;;;;;;;;;;;20.60;96.70;;;;;;5096679;28;20022;-70
2023/09/13 05:23:14;;;;;;;;;;;20.60;96.40;;;;;;5104837;28;19962;-69
2023/09/13 05:25:44;;;;;;;;;;;20.60;96.40;;;;;;5107483;28;19935;-70
2023/09/13 05:28:11;;;;;;;;;;;20.60;96.40;;;;;;5107255;28;19916;-70
2023/09/13 05:30:36;;;;;;;;;;;20.60;96.40;;;;;;5107813;28;19947;-70
2023/09/13 05:33:02;;;;;;;;;;;20.60;96.40;;;;;;5107320;28;20354;-70
2023/09/13 05:35:31;;;;;;;;;;;20.60;96.40;;;;;;5107164;28;19916;-70
2023/09/13 05:37:56;;;;;;;;;;;20.60;96.40;;;;;;5099060;28;19907;-70
2023/09/13 05:40:22;;;;;;;;;;;20.60;96.40;;;;;;5107238;27;20287;-70
2023/09/13 05:42:47;;;;;;;;;;;20.60;96.40;;;;;;5107552;28;19988;-70
2023/09/13 05:45:13;;;;;;;;;;;20.60;96.40;;;;;;5103662;28;19916;-70
2023/09/13 05:47:38;;;;;;;;;;;20.60;96.50;;;;;;5107682;28;19916;-70
2023/09/13 05:50:04;;;;;;;;;;;20.50;96.40;;;;;;5100715;28;19912;-69
2023/09/13 05:52:30;;;;;;;;;;;20.60;96.50;;;;;;5106730;28;19912;-69
2023/09/13 05:54:55;;;;;;;;;;;20.50;96.40;;;;;;5107280;28;20444;-69
2023/09/13 05:57:21;;;;;;;;;;;20.60;96.50;;;;;;5107174;28;19918;-69
2023/09/13 05:59:46;;;;;;;;;;;20.50;96.40;;;;;;5107758;28;19916;-70
2023/09/13 06:02:12;;;;;;;;;;;20.50;96.60;;;;;;5107067;28;20313;-70
2023/09/13 06:04:37;;;;;;;;;;;20.60;96.40;;;;;;5107157;28;19950;-70
2023/09/13 06:07:03;;;;;;;;;;;20.50;96.50;;;;;;5104580;28;19922;-70
2023/09/13 06:09:28;;;;;;;;;;;20.50;96.50;;;;;;5105482;28;19963;-69
2023/09/13 06:11:57;;;;;;;;;;;20.50;96.50;;;;;;5104444;28;20006;-69
2023/09/13 06:14:23;;;;;;;;;;;20.50;96.50;;;;;;5109299;28;19911;-70
2023/09/13 06:16:49;;;;;;;;;;;20.60;96.60;;;;;;5109552;28;20241;-69
2023/09/13 06:19:14;;;;;;;;;;;20.50;96.50;;;;;;5108131;28;19999;-70
2023/09/13 06:21:40;;;;;;;;;;;20.60;96.50;;;;;;5103666;28;19919;-69
2023/09/13 06:24:06;;;;;;;;;;;20.50;96.50;;;;;;5110710;28;20265;-69
2023/09/13 06:26:31;;;;;;;;;;;20.50;96.50;;;;;;5110552;28;19967;-69
2023/09/13 06:28:56;;;;;;;;;;;20.50;96.50;;;;;;5109560;28;19912;-69
2023/09/13 06:31:22;;;;;;;;;;;20.50;96.60;;;;;;5110674;28;19912;-69
2023/09/13 06:33:48;;;;;;;;;;;20.50;96.60;;;;;;5110962;28;19916;-69
2023/09/13 06:36:13;;;;;;;;;;;20.50;96.60;;;;;;5110752;28;20004;-69
2023/09/13 06:38:39;;;;;;;;;;;20.50;96.70;;;;;;5108650;28;19979;-69
2023/09/13 06:41:04;;;;;;;;;;;20.50;96.50;;;;;;5102826;28;19915;-69
2023/09/13 06:43:30;;;;;;;;;;;20.50;96.50;;;;;;5109418;28;19915;-70
2023/09/13 06:45:55;;;;;;;;;;;20.50;96.50;;;;;;5110574;28;19912;-70
2023/09/13 06:48:22;;;;;;;;;;;20.50;96.50;;;;;;5109956;28;19912;-69
2023/09/13 06:50:48;;;;;;;;;;;20.50;96.60;;;;;;5097646;28;19927;-69
2023/09/13 06:53:13;;;;;;;;;;;20.50;96.50;;;;;;5097552;28;19912;-69
2023/09/13 06:55:39;;;;;;;;;;;20.50;96.50;;;;;;5102290;28;20342;-69
2023/09/13 06:58:06;;;;;;;;;;;20.50;96.50;;;;;;5100798;28;19912;-69
2023/09/13 07:00:32;;;;;;;;;;;20.50;96.50;;;;;;5109819;28;19918;-69
2023/09/13 07:02:57;;;;;;;;;;;20.50;96.50;;;;;;5110174;28;19916;-69
2023/09/13 07:05:23;;;;;;;;;;;20.50;96.70;;;;;;5109811;28;20010;-70
2023/09/13 07:07:48;;;;;;;;;;;20.50;96.60;;;;;;5107908;28;19949;-70
2023/09/13 07:10:14;;;;;;;;;;;20.50;96.50;;;;;;5110016;28;20002;-70
2023/09/13 07:12:39;;;;;;;;;;;20.50;96.50;;;;;;5110334;28;19911;-70
2023/09/13 07:15:07;;;;;;;;;;;20.50;96.40;;;;;;5109509;28;20363;-69
2023/09/13 07:17:33;;;;;;;;;;;20.50;96.40;;;;;;5109716;28;20283;-69
2023/09/13 07:19:58;;;;;;;;;;;20.50;96.40;;;;;;5103561;28;20015;-70
2023/09/13 07:22:24;;;;;;;;;;;20.50;96.50;;;;;;5108198;28;19908;-69
2023/09/13 07:24:50;;;;;;;;;;;20.50;96.40;;;;;;5109628;28;20421;-70
2023/09/13 07:27:15;;;;;;;;;;;20.50;96.40;;;;;;5109496;28;19943;-69
2023/09/13 07:29:41;;;;;;;;;;;20.50;96.50;;;;;;5103526;28;20260;-69
2023/09/13 07:32:06;;;;;;;;;;;20.60;96.50;;;;;;5109914;28;20431;-69
2023/09/13 07:34:32;;;;;;;;;;;20.50;96.60;;;;;;5109037;28;20048;-69
2023/09/13 07:36:57;;;;;;;;;;;20.50;96.70;;;;;;5107825;28;19955;-70
2023/09/13 07:39:23;;;;;;;;;;;20.50;96.60;;;;;;5107786;28;19911;-70
2023/09/13 07:41:48;;;;;;;;;;;20.50;96.50;;;;;;5109503;28;19912;-69
2023/09/13 07:44:15;;;;;;;;;;;20.50;96.50;;;;;;5105566;28;20284;-70
2023/09/13 07:46:41;;;;;;;;;;;20.50;96.50;;;;;;5109382;28;19966;-69
2023/09/13 07:49:06;;;;;;;;;;;20.60;96.50;;;;;;5109561;28;19912;-69
2023/09/13 07:51:32;;;;;;;;;;;20.50;96.40;;;;;;5101414;28;19916;-69
2023/09/13 07:54:03;;;;;;;;;;;20.60;96.50;;;;;;5109066;28;19941;-69
2023/09/13 07:56:29;;;;;;;;;;;20.60;96.60;;;;;;5107409;28;20295;-69
2023/09/13 07:58:55;;;;;;;;;;;20.60;96.40;;;;;;5109201;28;19912;-69
2023/09/13 08:01:20;;;;;;;;;;;20.60;96.30;;;;;;5108861;28;19912;-69
2023/09/13 08:03:46;;;;;;;;;;;20.70;96.40;;;;;;5108680;28;19912;-69
2023/09/13 08:06:11;;;;;;;;;;;20.70;96.40;;;;;;5107710;28;19919;-69
2023/09/13 08:08:37;;;;;;;;;;;20.70;96.60;;;;;;5107765;28;19964;-69
2023/09/13 08:11:03;;;;;;;;;;;20.70;96.60;;;;;;5109156;28;19912;-69
2023/09/13 08:13:28;;;;;;;;;;;20.70;96.30;;;;;;5108364;28;20292;-69
2023/09/13 08:15:54;;;;;;;;;;;20.80;96.30;;;;;;5108881;28;19907;-69
2023/09/13 08:18:20;;;;;;;;;;;20.80;96.30;;;;;;5104821;27;19954;-69
2023/09/13 08:20:46;;;;;;;;;;;20.80;96.30;;;;;;5094106;28;19914;-69
2023/09/13 08:23:11;;;;;;;;;;;20.80;96.50;;;;;;5106643;28;19908;-69
2023/09/13 08:25:37;;;;;;;;;;;20.80;96.30;;;;;;5108611;28;19919;-69
2023/09/13 08:28:03;;;;;;;;;;;20.80;96.30;;;;;;5108624;28;20628;-69
2023/09/13 08:30:29;;;;;;;;;;;20.80;96.30;;;;;;5105802;28;19912;-69
2023/09/13 08:32:55;;;;;;;;;;;20.80;96.30;;;;;;5135188;27;19970;-69
2023/09/13 08:35:20;;;;;;;;;;;20.80;96.30;;;;;;5107874;28;19911;-69
2023/09/13 08:37:47;;;;;;;;;;;20.80;96.30;;;;;;5101118;28;19909;-69
2023/09/13 08:40:13;;;;;;;;;;;20.90;96.50;;;;;;5104838;28;19926;-69
2023/09/13 08:42:41;;;;;;;;;;;20.90;96.40;;;;;;5104605;28;19920;-69
2023/09/13 08:45:07;;;;;;;;;;;20.90;96.60;;;;;;5104087;28;20022;-69
2023/09/13 08:47:36;;;;;;;;;;;20.90;96.30;;;;;;5104775;28;20571;-69
2023/09/13 08:50:03;;;;;;;;;;;20.90;96.30;;;;;;5095554;28;20680;-69
2023/09/13 08:52:29;;;;;;;;;;;20.90;96.20;;;;;;5107104;28;19919;-69
2023/09/13 08:54:56;;;;;;;;;;;20.90;96.30;;;;;;5099399;28;20620;-69
2023/09/13 08:57:22;;;;;;;;;;;20.90;96.30;;;;;;5099272;28;19964;-69
2023/09/13 08:59:48;;;;;;;;;;;20.80;96.20;;;;;;5108149;28;19911;-69
2023/09/13 09:02:17;;;;;;;;;;;20.80;96.30;;;;;;5107880;28;20497;-69
2023/09/13 09:04:44;;;;;;;;;;;20.80;96.20;;;;;;5106602;28;19912;-69
2023/09/13 09:07:09;;;;;;;;;;;20.80;96.20;;;;;;5103827;28;19955;-70
2023/09/13 09:09:35;;;;;;;;;;;20.80;96.30;;;;;;5107482;28;19970;-69
2023/09/13 09:12:02;;;;;;;;;;;20.80;96.40;;;;;;5108019;28;20458;-69
2023/09/13 09:14:31;;;;;;;;;;;20.80;96.30;;;;;;5107400;28;19915;-69
2023/09/13 09:16:58;;;;;;;;;;;20.80;96.40;;;;;;5107902;28;19912;-69
2023/09/13 09:19:24;;;;;;;;;;;20.80;96.40;;;;;;5106217;28;19912;-69
2023/09/13 09:21:52;;;;;;;;;;;20.90;96.30;;;;;;5101289;28;19908;-70
2023/09/13 09:24:17;;;;;;;;;;;20.90;96.30;;;;;;5107330;28;19916;-69
2023/09/13 09:26:44;;;;;;;;;;;20.90;96.30;;;;;;5103216;28;19966;-69
2023/09/13 09:29:10;;;;;;;;;;;20.90;96.20;;;;;;5093847;28;19919;-70
2023/09/13 09:31:36;;;;;;;;;;;21.00;96.30;;;;;;5107294;28;19908;-69
2023/09/13 09:34:05;;;;;;;;;;;21.00;96.20;;;;;;5106176;28;20343;-69
2023/09/13 09:36:34;;;;;;;;;;;21.10;96.20;;;;;;5102527;28;20592;-69
2023/09/13 09:39:03;;;;;;;;;;;21.10;96.50;;;;;;5105575;28;20340;-69
2023/09/13 09:41:33;;;;;;;;;;;21.10;96.10;;;;;;5107485;28;20017;-69
2023/09/13 09:43:58;;;;;;;;;;;21.10;96.10;;;;;;5110482;28;19923;-69
2023/09/13 09:46:24;;;;;;;;;;;21.20;96.10;;;;;;5111336;28;19911;-69
2023/09/13 09:48:52;;;;;;;;;;;21.30;96.00;;;;;;5098732;28;19919;-69
2023/09/13 09:51:19;;;;;;;;;;;21.30;95.90;;;;;;5103560;28;19916;-69
2023/09/13 09:53:44;;;;;;;;;;;21.30;96.00;;;;;;5111699;28;19916;-69
2023/09/13 09:56:13;;;;;;;;;;;21.30;95.80;;;;;;5111622;28;19911;-69
2023/09/13 09:58:38;;;;;;;;;;;21.30;95.80;;;;;;5110563;28;19912;-69
2023/09/13 10:01:04;;;;;;;;;;;21.40;95.90;;;;;;5111783;28;20315;-69
2023/09/13 10:03:33;;;;;;;;;;;21.50;95.60;;;;;;5102788;28;19977;-69
2023/09/13 10:06:03;;;;;;;;;;;21.60;95.60;;;;;;5111497;28;19912;-69
2023/09/13 10:08:42;;;;;;;;;;;21.70;95.60;;;;;;5105516;28;20449;-69
2023/09/13 10:11:08;;;;;;;;;;;21.80;95.30;;;;;;5109765;28;19957;-69
2023/09/13 10:13:35;;;;;;;;;;;21.80;95.40;;;;;;5110558;28;20336;-69
2023/09/13 10:16:05;;;;;;;;;;;21.80;95.30;;;;;;5111239;27;19911;-69
2023/09/13 10:18:35;;;;;;;;;;;21.80;95.20;;;;;;5105364;28;20000;-70
2023/09/13 10:21:02;;;;;;;;;;;21.80;95.30;;;;;;5095994;28;19912;-69
2023/09/13 10:23:39;;;;;;;;;;;21.80;95.40;;;;;;5100772;28;19912;-69
2023/09/13 10:26:06;;;;;;;;;;;21.70;95.50;;;;;;5110980;28;19912;-69
2023/09/13 10:28:32;;;;;;;;;;;21.60;95.60;;;;;;5110756;28;20369;-69
2023/09/13 10:31:00;;;;;;;;;;;21.60;95.60;;;;;;5111130;27;19916;-69
2023/09/13 10:33:26;;;;;;;;;;;21.60;95.70;;;;;;5110665;28;19918;-69
2023/09/13 10:35:58;;;;;;;;;;;21.50;95.80;;;;;;5102614;28;19914;-69
2023/09/13 10:38:29;;;;;;;;;;;21.50;95.80;;;;;;5106235;28;19939;-69
2023/09/13 10:41:05;;;;;;;;;;;21.50;95.80;;;;;;5098963;28;19943;-69
2023/09/13 10:43:31;;;;;;;;;;;21.60;95.80;;;;;;5100574;28;19999;-69
2023/09/13 10:45:57;;;;;;;;;;;21.60;95.70;;;;;;5110830;28;19919;-69
2023/09/13 10:48:23;;;;;;;;;;;21.70;95.70;;;;;;5093538;28;19916;-69
2023/09/13 10:50:49;;;;;;;;;;;21.60;95.80;;;;;;5097565;28;19912;-69
2023/09/13 10:53:15;;;;;;;;;;;21.60;95.80;;;;;;5096984;28;19951;-69
2023/09/13 10:55:40;;;;;;;;;;;21.60;95.70;;;;;;5101462;28;19915;-69
2023/09/13 10:58:08;;;;;;;;;;;21.50;95.90;;;;;;5110458;28;19950;-69
2023/09/13 11:00:34;;;;;;;;;;;21.50;95.90;;;;;;5098810;28;19922;-69
2023/09/13 11:02:59;;;;;;;;;;;21.50;95.90;;;;;;5098143;28;19908;-69
2023/09/13 11:05:26;;;;;;;;;;;21.50;95.80;;;;;;5089602;28;19942;-69
2023/09/13 11:07:52;;;;;;;;;;;21.50;95.90;;;;;;5097667;28;20744;-69
2023/09/13 11:10:18;;;;;;;;;;;21.40;95.80;;;;;;5110078;28;19995;-69
2023/09/13 11:12:53;;;;;;;;;;;21.40;95.90;;;;;;5110306;28;19915;-70
2023/09/13 11:15:23;;;;;;;;;;;21.40;95.80;;;;;;5109583;28;20006;-69
2023/09/13 11:17:52;;;;;;;;;;;21.40;95.90;;;;;;5110357;28;19915;-70
2023/09/13 11:20:27;;;;;;;;;;;21.40;95.90;;;;;;5094225;28;19919;-69
2023/09/13 11:23:05;;;;;;;;;;;21.30;95.90;;;;;;5104651;27;19912;-69
2023/09/13 11:25:38;;;;;;;;;;;21.30;95.80;;;;;;5089207;28;19908;-69
2023/09/13 11:28:05;;;;;;;;;;;21.30;95.90;;;;;;5096684;28;19923;-69
2023/09/13 11:30:50;;;;;;;;;;;21.30;95.90;;;;;;5101056;28;19912;-69
2023/09/13 11:33:15;;;;;;;;;;;21.30;95.90;;;;;;5109389;28;19911;-69
2023/09/13 11:35:42;;;;;;;;;;;21.30;95.80;;;;;;5089514;28;19918;-69
2023/09/13 11:38:11;;;;;;;;;;;21.20;95.80;;;;;;5105343;28;20011;-70
2023/09/13 11:40:37;;;;;;;;;;;21.20;95.80;;;;;;5106182;28;19935;-69
2023/09/13 11:43:03;;;;;;;;;;;21.20;95.90;;;;;;5102944;28;19961;-69
2023/09/13 11:45:30;;;;;;;;;;;21.20;95.90;;;;;;5097143;28;19912;-69
2023/09/13 11:47:56;;;;;;;;;;;21.20;95.80;;;;;;5096339;28;20396;-69
2023/09/13 11:50:22;;;;;;;;;;;21.20;95.90;;;;;;5098597;28;19933;-69
2023/09/13 11:53:06;;;;;;;;;;;21.20;95.80;;;;;;5109634;28;20010;-69
2023/09/13 11:55:31;;;;;;;;;;;21.20;95.80;;;;;;5108864;28;19908;-69
2023/09/13 11:57:57;;;;;;;;;;;21.20;95.70;;;;;;5100553;28;19960;-69
2023/09/13 12:00:25;;;;;;;;;;;21.20;95.70;;;;;;5100546;28;19908;-69
2023/09/13 12:02:50;;;;;;;;;;;21.20;95.60;;;;;;5107924;28;20569;-69
2023/09/13 12:05:16;;;;;;;;;;;21.30;95.50;;;;;;5107455;28;19939;-70
2023/09/13 12:07:42;;;;;;;;;;;21.40;95.40;;;;;;5088551;28;19977;-69
2023/09/13 12:10:07;;;;;;;;;;;21.50;95.30;;;;;;5088646;28;19995;-69
2023/09/13 12:12:40;;;;;;;;;;;21.50;95.20;;;;;;5107992;28;20525;-69
2023/09/13 12:15:06;;;;;;;;;;;21.50;95.10;;;;;;5119591;27;19911;-69
2023/09/13 12:17:38;;;;;;;;;;;21.60;95.10;;;;;;5108780;28;19989;-69
2023/09/13 12:20:08;;;;;;;;;;;21.60;95.10;;;;;;5102001;28;19920;-69
2023/09/13 12:22:42;;;;;;;;;;;21.60;95.00;;;;;;5107724;28;19919;-69
2023/09/13 12:25:11;;;;;;;;;;;21.70;95.00;;;;;;5108469;28;19943;-69
2023/09/13 12:27:37;;;;;;;;;;;21.70;94.90;;;;;;5108256;28;19962;-69
2023/09/13 12:30:16;;;;;;;;;;;21.70;94.80;;;;;;5093524;28;19952;-69
2023/09/13 12:32:43;;;;;;;;;;;21.80;94.80;;;;;;5097058;28;19912;-69
2023/09/13 12:35:09;;;;;;;;;;;21.80;94.80;;;;;;5088070;28;19958;-69
2023/09/13 12:37:35;;;;;;;;;;;21.80;94.70;;;;;;5095195;28;19931;-69
2023/09/13 12:40:13;;;;;;;;;;;21.80;94.70;;;;;;5101642;28;20481;-69
2023/09/13 12:42:39;;;;;;;;;;;21.80;94.70;;;;;;5108741;28;19912;-69
2023/09/13 12:45:05;;;;;;;;;;;21.80;94.80;;;;;;5108248;28;20599;-69
2023/09/13 12:47:32;;;;;;;;;;;21.80;94.80;;;;;;5099828;28;19915;-70
2023/09/13 12:49:58;;;;;;;;;;;21.70;94.80;;;;;;5094007;28;19920;-70
2023/09/13 12:52:25;;;;;;;;;;;21.70;94.90;;;;;;5130373;27;20424;-70
2023/09/13 12:54:51;;;;;;;;;;;21.70;95.00;;;;;;5108321;28;19919;-70
2023/09/13 12:57:16;;;;;;;;;;;21.70;95.00;;;;;;5098490;28;19908;-70
2023/09/13 12:59:43;;;;;;;;;;;21.70;95.00;;;;;;5108377;28;19955;-69
2023/09/13 13:02:15;;;;;;;;;;;21.70;94.90;;;;;;5100823;28;20384;-69
2023/09/13 13:04:42;;;;;;;;;;;21.70;94.90;;;;;;5087765;28;20341;-70
2023/09/13 13:07:08;;;;;;;;;;;21.70;94.90;;;;;;5097438;28;20466;-69
2023/09/13 13:09:33;;;;;;;;;;;21.70;94.90;;;;;;5108106;28;20023;-70
2023/09/13 13:11:59;;;;;;;;;;;21.70;94.90;;;;;;5093495;28;19912;-69
2023/09/13 13:14:29;;;;;;;;;;;21.70;94.80;;;;;;5097089;28;19919;-69
2023/09/13 13:16:55;;;;;;;;;;;21.70;94.80;;;;;;5102601;28;19917;-69
2023/09/13 13:19:28;;;;;;;;;;;21.70;94.80;;;;;;5094331;28;19953;-70
2023/09/13 13:21:54;;;;;;;;;;;21.70;94.80;;;;;;5101598;28;19931;-69
2023/09/13 13:24:19;;;;;;;;;;;21.80;94.60;;;;;;5090262;28;20327;-69
2023/09/13 13:26:45;;;;;;;;;;;21.90;94.50;;;;;;5089869;28;19920;-69
2023/09/13 13:29:12;;;;;;;;;;;21.90;94.50;;;;;;5107435;28;20201;-69
2023/09/13 13:31:38;;;;;;;;;;;21.90;94.00;;;;;;5094411;28;19913;-70
2023/09/13 13:34:04;;;;;;;;;;;21.90;94.40;;;;;;5087571;28;20003;-69
2023/09/13 13:36:29;;;;;;;;;;;21.90;94.50;;;;;;5093094;28;19908;-70
2023/09/13 13:38:56;;;;;;;;;;;21.90;94.40;;;;;;5099662;28;19943;-70
2023/09/13 13:41:22;;;;;;;;;;;21.80;94.40;;;;;;5103621;28;19998;-69
2023/09/13 13:43:49;;;;;;;;;;;21.80;94.30;;;;;;5106012;28;19919;-69
2023/09/13 13:46:15;;;;;;;;;;;21.90;94.40;;;;;;5099639;28;19915;-70
2023/09/13 13:48:42;;;;;;;;;;;21.80;94.40;;;;;;5095839;28;19969;-70
2023/09/13 13:51:07;;;;;;;;;;;21.80;94.40;;;;;;5094863;28;19912;-70
2023/09/13 13:53:33;;;;;;;;;;;21.80;94.60;;;;;;5086522;28;19943;-70
2023/09/13 13:56:00;;;;;;;;;;;21.70;94.60;;;;;;5087406;28;19973;-70
2023/09/13 13:58:26;;;;;;;;;;;21.70;94.70;;;;;;5103921;28;19919;-69
2023/09/13 14:00:52;;;;;;;;;;;21.70;95.00;;;;;;5090062;28;19912;-69
2023/09/13 14:03:18;;;;;;;;;;;21.70;94.70;;;;;;5086936;28;19912;-70
2023/09/13 14:05:44;;;;;;;;;;;21.70;94.70;;;;;;5099431;28;20428;-70
2023/09/13 14:08:10;;;;;;;;;;;21.70;94.60;;;;;;5105591;28;19951;-70
2023/09/13 14:10:39;;;;;;;;;;;21.70;94.60;;;;;;5104366;28;19912;-69
2023/09/13 14:13:09;;;;;;;;;;;21.70;94.60;;;;;;5087275;28;20351;-70